createdAt,value
2023-06-10T00:02:08.117Z,19.02
2023-06-10T00:04:35.718Z,18.94
2023-06-10T00:07:03.658Z,18.91
2023-06-10T00:09:30.729Z,18.85
2023-06-10T00:12:01.017Z,18.75
2023-06-10T00:14:27.878Z,18.78
2023-06-10T00:16:54.650Z,18.58
2023-06-10T00:19:26.794Z,18.67
2023-06-10T00:21:53.697Z,18.59
2023-06-10T00:24:20.619Z,18.59
2023-06-10T00:26:47.673Z,18.65
2023-06-10T00:29:15.265Z,18.66
2023-06-10T00:31:42.257Z,18.74
2023-06-10T00:34:09.383Z,18.82
2023-06-10T00:36:39.420Z,18.76
2023-06-10T00:39:06.305Z,18.63
2023-06-10T00:41:35.061Z,18.70
2023-06-10T00:44:02.044Z,18.73
2023-06-10T00:46:29.169Z,18.66
2023-06-10T00:48:56.444Z,18.59
2023-06-10T00:51:23.796Z,18.57
2023-06-10T00:53:51.169Z,18.58
2023-06-10T00:56:18.248Z,18.59
2023-06-10T00:58:45.756Z,18.52
2023-06-10T01:01:13.813Z,18.39
2023-06-10T01:03:41.091Z,18.28
2023-06-10T01:06:15.464Z,18.14
2023-06-10T01:08:53.108Z,18.19
2023-06-10T01:11:28.548Z,18.19
2023-06-10T01:13:57.199Z,18.23
2023-06-10T01:16:24.700Z,18.23
2023-06-10T01:18:53.499Z,18.15
2023-06-10T01:21:27.854Z,18.10
2023-06-10T01:23:56.924Z,17.97
2023-06-10T01:26:29.768Z,18.10
2023-06-10T01:29:07.024Z,18.16
2023-06-10T01:31:40.528Z,18.18
2023-06-10T01:34:11.861Z,18.22
2023-06-10T01:36:41.624Z,18.24
2023-06-10T01:39:10.025Z,18.35
2023-06-10T01:41:37.589Z,18.33
2023-06-10T01:44:04.850Z,18.34
2023-06-10T01:46:31.668Z,18.24
2023-06-10T01:48:58.601Z,18.22
2023-06-10T01:51:25.673Z,18.17
2023-06-10T01:53:52.607Z,18.18
2023-06-10T01:56:21.720Z,18.11
2023-06-10T01:58:48.584Z,18.07
2023-06-10T02:01:15.759Z,18.02
2023-06-10T02:03:42.705Z,18.02
2023-06-10T02:06:09.685Z,18.03
2023-06-10T02:08:36.633Z,18.05
2023-06-10T02:11:03.407Z,18.07
2023-06-10T02:13:30.695Z,17.98
2023-06-10T02:15:58.088Z,17.90
2023-06-10T02:18:29.750Z,17.79
2023-06-10T02:20:56.526Z,17.76
2023-06-10T02:23:23.392Z,17.84
2023-06-10T02:25:50.551Z,17.87
2023-06-10T02:28:18.443Z,17.85
2023-06-10T02:30:46.206Z,17.89
2023-06-10T02:33:13.082Z,17.88
2023-06-10T02:35:41.101Z,17.77
2023-06-10T02:38:08.491Z,17.63
2023-06-10T02:40:35.990Z,17.52
2023-06-10T02:43:02.959Z,17.45
2023-06-10T02:45:29.892Z,17.49
2023-06-10T02:47:58.740Z,17.50
2023-06-10T02:50:25.883Z,17.51
2023-06-10T02:53:07.461Z,17.45
2023-06-10T02:55:36.551Z,17.46
2023-06-10T02:58:06.523Z,17.49
2023-06-10T03:00:34.370Z,17.50
2023-06-10T03:03:04.501Z,17.46
2023-06-10T03:05:36.244Z,17.55
2023-06-10T03:08:05.427Z,17.54
2023-06-10T03:10:35.030Z,17.48
2023-06-10T03:13:02.959Z,17.45
2023-06-10T03:15:33.850Z,17.39
2023-06-10T03:18:03.492Z,17.32
2023-06-10T03:20:31.079Z,17.24
2023-06-10T03:22:58.312Z,17.40
2023-06-10T03:25:27.333Z,17.45
2023-06-10T03:27:54.886Z,17.48
2023-06-10T03:30:21.728Z,17.53
2023-06-10T03:32:51.077Z,17.43
2023-06-10T03:35:20.809Z,17.60
2023-06-10T03:37:47.675Z,17.64
2023-06-10T03:40:14.654Z,17.63
2023-06-10T03:42:45.370Z,17.61
2023-06-10T03:45:14.618Z,17.60
2023-06-10T03:47:42.040Z,17.57
2023-06-10T03:50:12.422Z,17.67
2023-06-10T03:52:42.188Z,17.72
2023-06-10T03:55:12.870Z,17.75
2023-06-10T03:57:41.822Z,17.82
2023-06-10T04:00:13.147Z,17.81
2023-06-10T04:02:47.679Z,17.84
2023-06-10T04:05:22.998Z,17.94
2023-06-10T04:07:49.972Z,17.92
2023-06-10T04:10:17.092Z,17.84
2023-06-10T04:12:44.020Z,17.85
2023-06-10T04:15:12.184Z,18.01
2023-06-10T04:17:39.524Z,18.17
2023-06-10T04:20:08.768Z,18.15
2023-06-10T04:22:37.511Z,18.37
2023-06-10T04:25:04.622Z,18.31
2023-06-10T04:27:32.008Z,18.41
2023-06-10T04:29:58.861Z,18.39
2023-06-10T04:32:25.781Z,18.33
2023-06-10T04:34:52.566Z,18.38
2023-06-10T04:37:19.533Z,18.39
2023-06-10T04:39:46.410Z,18.58
2023-06-10T04:42:13.317Z,18.67
2023-06-10T04:44:41.734Z,18.77
2023-06-10T04:47:08.909Z,18.77
2023-06-10T04:49:36.856Z,18.84
2023-06-10T04:52:06.065Z,18.84
2023-06-10T04:54:36.756Z,18.80
2023-06-10T04:57:04.000Z,18.87
2023-06-10T04:59:31.165Z,18.94
2023-06-10T05:01:58.098Z,18.91
2023-06-10T05:04:24.878Z,19.12
2023-06-10T05:06:51.627Z,19.21
2023-06-10T05:09:18.388Z,19.30
2023-06-10T05:11:45.965Z,19.07
2023-06-10T05:14:12.873Z,19.20
2023-06-10T05:16:39.845Z,19.39
2023-06-10T05:19:08.565Z,19.45
2023-06-10T05:21:35.828Z,19.43
2023-06-10T05:24:03.294Z,19.57
2023-06-10T05:26:32.694Z,19.77
2023-06-10T05:28:59.953Z,19.99
2023-06-10T05:31:27.382Z,20.16
2023-06-10T05:33:54.385Z,19.86
2023-06-10T05:36:21.496Z,19.94
2023-06-10T05:38:48.352Z,19.93
2023-06-10T05:41:15.101Z,19.89
2023-06-10T05:43:42.206Z,20.17
2023-06-10T05:46:09.195Z,20.19
2023-06-10T05:48:36.072Z,20.34
2023-06-10T05:51:03.016Z,20.34
2023-06-10T05:53:29.715Z,20.41
2023-06-10T05:55:58.662Z,20.46
2023-06-10T05:58:25.943Z,20.47
2023-06-10T06:00:52.715Z,20.50
2023-06-10T06:03:20.186Z,20.66
2023-06-10T06:05:47.373Z,20.57
2023-06-10T06:08:19.575Z,20.62
2023-06-10T06:10:48.907Z,20.73
2023-06-10T06:13:16.220Z,20.86
2023-06-10T06:15:43.442Z,20.88
2023-06-10T06:18:10.313Z,20.94
2023-06-10T06:20:37.239Z,21.03
2023-06-10T06:23:03.914Z,21.08
2023-06-10T06:25:30.684Z,21.01
2023-06-10T06:27:57.814Z,21.11
2023-06-10T06:30:24.515Z,21.14
2023-06-10T06:32:52.953Z,21.30
2023-06-10T06:35:20.049Z,21.22
2023-06-10T06:37:46.830Z,21.39
2023-06-10T06:40:25.828Z,21.42
2023-06-10T06:42:52.649Z,21.30
2023-06-10T06:45:54.509Z,21.08
2023-06-10T06:48:21.949Z,21.11
2023-06-10T06:50:49.362Z,21.29
2023-06-10T06:53:16.239Z,21.26
2023-06-10T06:55:43.008Z,21.29
2023-06-10T06:58:09.729Z,21.20
2023-06-10T07:00:36.532Z,21.32
2023-06-10T07:03:03.638Z,21.28
2023-06-10T07:05:32.061Z,21.59
2023-06-10T07:07:59.023Z,21.54
2023-06-10T07:10:27.032Z,21.64
2023-06-10T07:12:54.408Z,21.54
2023-06-10T07:15:21.568Z,21.68
2023-06-10T07:17:48.606Z,21.70
2023-06-10T07:20:16.132Z,21.77
2023-06-10T07:22:43.446Z,21.89
2023-06-10T07:25:10.871Z,22.02
2023-06-10T07:27:38.370Z,21.92
2023-06-10T07:30:07.954Z,21.74
2023-06-10T07:32:35.028Z,22.00
2023-06-10T07:35:02.163Z,22.04
2023-06-10T07:37:28.965Z,22.01
2023-06-10T07:39:57.219Z,21.60
2023-06-10T07:42:24.015Z,21.81
2023-06-10T07:44:50.765Z,21.88
2023-06-10T07:47:17.780Z,21.73
2023-06-10T07:49:44.706Z,21.69
2023-06-10T07:52:11.401Z,21.81
2023-06-10T07:54:38.174Z,21.92
2023-06-10T07:57:05.758Z,21.81
2023-06-10T07:59:32.515Z,21.78
2023-06-10T08:01:59.309Z,21.83
2023-06-10T08:04:26.092Z,22.11
2023-06-10T08:06:52.888Z,22.18
2023-06-10T08:09:19.584Z,22.23
2023-06-10T08:11:48.405Z,22.34
2023-06-10T08:14:15.181Z,22.45
2023-06-10T08:16:42.779Z,22.27
2023-06-10T08:19:10.349Z,22.20
2023-06-10T08:21:40.867Z,21.94
2023-06-10T08:24:08.564Z,21.92
2023-06-10T08:26:35.675Z,22.25
2023-06-10T08:29:02.558Z,22.69
2023-06-10T08:31:29.384Z,22.87
2023-06-10T08:33:56.320Z,22.90
2023-06-10T08:36:23.440Z,22.62
2023-06-10T08:38:50.168Z,22.40
2023-06-10T08:41:19.558Z,22.33
2023-06-10T08:44:04.747Z,22.19
2023-06-10T08:46:33.883Z,21.71
2023-06-10T08:49:05.220Z,21.75
2023-06-10T08:51:35.794Z,21.78
2023-06-10T08:54:06.900Z,22.06
2023-06-10T08:56:40.336Z,22.05
2023-06-10T08:59:07.849Z,21.91
2023-06-10T09:01:35.215Z,21.89
2023-06-10T09:04:03.386Z,21.68
2023-06-10T09:06:30.501Z,21.65
2023-06-10T09:08:59.775Z,21.73
2023-06-10T09:11:28.604Z,21.84
2023-06-10T09:13:55.427Z,21.90
2023-06-10T09:16:22.304Z,21.65
2023-06-10T09:18:49.786Z,21.63
2023-06-10T09:21:16.678Z,21.37
2023-06-10T09:23:45.240Z,21.27
2023-06-10T09:26:12.696Z,21.34
2023-06-10T09:28:40.396Z,21.56
2023-06-10T09:31:10.844Z,21.81
2023-06-10T09:33:41.937Z,21.77
2023-06-10T09:36:08.869Z,21.85
2023-06-10T09:38:36.405Z,21.97
2023-06-10T09:41:04.402Z,22.09
2023-06-10T09:43:45.175Z,22.21
2023-06-10T09:46:19.081Z,22.26
2023-06-10T09:48:47.972Z,22.29
2023-06-10T09:51:16.216Z,22.31
2023-06-10T09:53:46.562Z,22.41
2023-06-10T09:56:13.668Z,22.46
2023-06-10T09:58:43.274Z,22.34
2023-06-10T10:01:10.739Z,22.29
2023-06-10T10:03:48.957Z,22.41
2023-06-10T10:06:18.066Z,22.42
2023-06-10T10:08:46.441Z,22.41
2023-06-10T10:11:14.016Z,22.54
2023-06-10T10:13:41.564Z,22.40
2023-06-10T10:16:13.165Z,22.60
2023-06-10T10:18:43.256Z,22.73
2023-06-10T10:21:14.209Z,22.87
2023-06-10T10:24:06.691Z,22.84
2023-06-10T10:26:34.333Z,22.87
2023-06-10T10:29:06.863Z,22.73
2023-06-10T10:31:36.062Z,22.66
2023-06-10T10:34:07.887Z,22.69
2023-06-10T10:36:37.254Z,22.60
2023-06-10T10:39:05.842Z,22.40
2023-06-10T10:41:33.823Z,22.29
2023-06-10T10:44:01.979Z,22.05
2023-06-10T10:46:28.792Z,21.79
2023-06-10T10:48:56.694Z,21.82
2023-06-10T10:51:25.167Z,21.84
2023-06-10T10:54:11.636Z,21.93
2023-06-10T10:56:38.651Z,22.01
2023-06-10T10:59:06.546Z,22.14
2023-06-10T11:01:43.779Z,22.27
2023-06-10T11:04:10.951Z,22.33
2023-06-10T11:06:38.142Z,22.33
2023-06-10T11:09:31.173Z,22.34
2023-06-10T11:12:02.398Z,22.22
2023-06-10T11:14:31.242Z,22.33
2023-06-10T11:16:59.280Z,22.22
2023-06-10T11:19:37.171Z,22.30
2023-06-10T11:22:07.161Z,22.26
2023-06-10T11:24:34.532Z,22.11
2023-06-10T11:27:40.569Z,22.26
2023-06-10T11:30:08.821Z,22.31
2023-06-10T11:32:36.619Z,22.30
2023-06-10T11:35:09.162Z,22.41
2023-06-10T11:37:36.482Z,22.43
2023-06-10T11:40:04.280Z,22.38
2023-06-10T11:42:31.282Z,22.44
2023-06-10T11:44:58.353Z,22.45
2023-06-10T11:47:25.235Z,22.45
2023-06-10T11:49:58.672Z,22.47
2023-06-10T11:52:32.468Z,22.47
2023-06-10T11:54:59.308Z,22.49
2023-06-10T11:57:26.154Z,22.51
2023-06-10T11:59:52.947Z,22.51
2023-06-10T12:02:20.540Z,22.50
2023-06-10T12:04:47.633Z,22.39
2023-06-10T12:07:21.096Z,22.41
2023-06-10T12:09:48.202Z,22.44
2023-06-10T12:12:15.258Z,22.44
2023-06-10T12:15:03.989Z,22.45
2023-06-10T12:17:33.725Z,22.39
2023-06-10T12:20:02.275Z,22.30
2023-06-10T12:22:38.000Z,22.23
2023-06-10T12:25:07.875Z,22.30
2023-06-10T12:27:36.428Z,22.30
2023-06-10T12:30:05.907Z,22.27
2023-06-10T12:32:53.684Z,22.28
2023-06-10T12:35:22.982Z,22.45
2023-06-10T12:38:12.294Z,22.60
2023-06-10T12:40:44.068Z,22.62
2023-06-10T12:43:11.029Z,22.68
2023-06-10T12:45:44.517Z,22.86
2023-06-10T12:48:13.854Z,22.85
2023-06-10T12:50:42.570Z,22.64
2023-06-10T12:53:10.781Z,22.70
2023-06-10T12:55:37.622Z,22.63
2023-06-10T12:58:04.766Z,22.73
2023-06-10T13:00:31.974Z,22.74
2023-06-10T13:03:02.279Z,22.71
2023-06-10T13:05:30.738Z,22.74
2023-06-10T13:07:57.546Z,22.71
2023-06-10T13:10:25.971Z,22.71
2023-06-10T13:12:55.771Z,22.78
2023-06-10T13:15:22.993Z,22.74
2023-06-10T13:17:52.992Z,22.91
2023-06-10T13:20:21.848Z,23.09
2023-06-10T13:22:48.941Z,23.11
2023-06-10T13:25:16.606Z,23.17
2023-06-10T13:27:43.986Z,23.22
2023-06-10T13:30:12.111Z,23.25
2023-06-10T13:32:39.699Z,23.28
2023-06-10T13:35:09.057Z,23.42
2023-06-10T13:37:36.570Z,23.35
2023-06-10T13:40:04.052Z,23.34
2023-06-10T13:42:33.974Z,23.42
2023-06-10T13:45:01.163Z,23.51
2023-06-10T13:47:28.005Z,23.53
2023-06-10T13:49:54.815Z,23.58
2023-06-10T13:52:21.593Z,23.35
2023-06-10T13:54:48.648Z,23.45
2023-06-10T13:57:15.538Z,23.35
2023-06-10T13:59:42.288Z,23.61
2023-06-10T14:02:09.820Z,23.75
2023-06-10T14:04:36.606Z,23.96
2023-06-10T14:07:03.418Z,24.19
2023-06-10T14:09:30.974Z,24.15
2023-06-10T14:11:57.723Z,23.95
2023-06-10T14:14:24.597Z,23.92
2023-06-10T14:16:51.367Z,23.98
2023-06-10T14:19:18.175Z,24.03
2023-06-10T14:21:44.991Z,23.83
2023-06-10T14:24:11.875Z,23.80
2023-06-10T14:26:38.656Z,23.91
2023-06-10T14:29:05.409Z,23.79
2023-06-10T14:31:32.208Z,23.95
2023-06-10T14:33:58.982Z,23.74
2023-06-10T14:36:26.822Z,23.91
2023-06-10T14:38:54.857Z,23.92
2023-06-10T14:41:23.400Z,24.05
2023-06-10T14:43:50.290Z,24.06
2023-06-10T14:46:17.228Z,24.02
2023-06-10T14:48:44.067Z,23.97
2023-06-10T14:51:10.888Z,23.92
2023-06-10T14:53:37.868Z,23.98
2023-06-10T14:56:05.175Z,24.04
2023-06-10T14:58:32.024Z,24.17
2023-06-10T15:00:58.814Z,24.23
2023-06-10T15:03:25.561Z,24.35
2023-06-10T15:05:52.383Z,24.31
2023-06-10T15:08:19.474Z,24.32
2023-06-10T15:10:46.256Z,24.32
2023-06-10T15:13:13.130Z,24.36
2023-06-10T15:15:40.042Z,24.29
2023-06-10T15:18:06.875Z,24.18
2023-06-10T15:20:33.680Z,24.22
2023-06-10T15:23:00.658Z,24.16
2023-06-10T15:25:31.539Z,24.18
2023-06-10T15:27:59.207Z,24.18
2023-06-10T15:30:26.226Z,24.11
2023-06-10T15:32:54.395Z,24.09
2023-06-10T15:35:21.445Z,24.09
2023-06-10T15:37:48.525Z,23.89
2023-06-10T15:40:15.399Z,23.86
2023-06-10T15:42:42.382Z,23.93
2023-06-10T15:45:09.888Z,23.89
2023-06-10T15:47:36.909Z,23.88
2023-06-10T15:50:03.915Z,23.75
2023-06-10T15:52:30.612Z,23.71
2023-06-10T15:54:57.422Z,23.71
2023-06-10T15:57:26.858Z,23.68
2023-06-10T15:59:54.784Z,23.46
2023-06-10T16:02:21.846Z,23.46
2023-06-10T16:04:48.802Z,23.46
2023-06-10T16:07:15.490Z,23.35
2023-06-10T16:09:42.249Z,23.33
2023-06-10T16:12:09.528Z,23.37
2023-06-10T16:14:36.366Z,23.47
2023-06-10T16:17:03.515Z,23.47
2023-06-10T16:19:30.771Z,23.50
2023-06-10T16:21:57.505Z,23.66
2023-06-10T16:24:24.725Z,23.76
2023-06-10T16:26:51.928Z,23.86
2023-06-10T16:29:18.942Z,23.82
2023-06-10T16:31:45.854Z,23.78
2023-06-10T16:34:12.757Z,23.79
2023-06-10T16:36:40.373Z,23.77
2023-06-10T16:39:07.287Z,23.87
2023-06-10T16:41:34.364Z,23.84
2023-06-10T16:44:03.840Z,23.97
2023-06-10T16:46:31.349Z,23.85
2023-06-10T16:48:58.158Z,23.86
2023-06-10T16:51:25.020Z,23.56
2023-06-10T16:53:51.958Z,23.57
2023-06-10T16:56:18.739Z,23.37
2023-06-10T16:58:45.559Z,23.24
2023-06-10T17:01:12.253Z,23.13
2023-06-10T17:03:39.346Z,23.05
2023-06-10T17:06:06.313Z,22.97
2023-06-10T17:08:33.055Z,22.87
2023-06-10T17:10:59.805Z,22.89
2023-06-10T17:13:26.622Z,22.77
2023-06-10T17:15:53.682Z,22.65
2023-06-10T17:18:20.575Z,22.67
2023-06-10T17:20:47.415Z,22.59
2023-06-10T17:23:14.205Z,22.50
2023-06-10T17:25:41.252Z,22.39
2023-06-10T17:28:07.985Z,22.49
2023-06-10T17:30:34.907Z,22.34
2023-06-10T17:33:01.669Z,22.29
2023-06-10T17:37:55.075Z,22.13
2023-06-10T17:40:22.019Z,22.15
2023-06-10T17:42:48.805Z,22.08
2023-06-10T17:45:15.871Z,22.08
2023-06-10T17:47:42.761Z,22.04
2023-06-10T17:50:09.863Z,22.01
2023-06-10T17:52:36.798Z,22.03
2023-06-10T17:55:03.929Z,21.92
2023-06-10T17:57:32.560Z,21.94
2023-06-10T17:59:59.848Z,21.84
2023-06-10T18:02:26.810Z,21.84
2023-06-10T18:04:53.597Z,21.79
2023-06-10T18:07:20.445Z,21.80
2023-06-10T18:09:47.201Z,21.75
2023-06-10T18:12:14.048Z,21.75
2023-06-10T18:14:40.868Z,21.74
2023-06-10T18:17:07.844Z,21.65
2023-06-10T18:19:34.632Z,21.66
2023-06-10T18:22:01.564Z,21.63
2023-06-10T18:24:28.371Z,21.64
2023-06-10T18:26:55.176Z,21.65
2023-06-10T18:29:21.923Z,21.60
2023-06-10T18:31:49.241Z,21.61
2023-06-10T18:34:16.099Z,21.59
2023-06-10T18:36:42.978Z,21.61
2023-06-10T18:39:09.767Z,21.57
2023-06-10T18:41:36.491Z,21.56
2023-06-10T18:44:03.352Z,21.48
2023-06-10T18:46:30.534Z,21.43
2023-06-10T18:48:57.500Z,21.42
2023-06-10T18:51:24.335Z,21.50
2023-06-10T18:53:51.016Z,21.44
2023-06-10T18:56:17.801Z,21.45
2023-06-10T18:58:47.691Z,21.49
2023-06-10T19:01:14.728Z,21.48
2023-06-10T19:03:41.572Z,21.47
2023-06-10T19:06:08.575Z,21.40
2023-06-10T19:08:35.416Z,21.37
2023-06-10T19:11:03.134Z,21.39
2023-06-10T19:13:30.245Z,21.36
2023-06-10T19:15:57.136Z,21.33
2023-06-10T19:18:23.965Z,21.27
2023-06-10T19:20:51.483Z,21.24
2023-06-10T19:23:18.518Z,21.34
2023-06-10T19:25:45.380Z,21.30
2023-06-10T19:28:12.328Z,21.26
2023-06-10T19:30:39.494Z,21.24
2023-06-10T19:33:07.956Z,21.22
2023-06-10T19:35:36.306Z,21.22
2023-06-10T19:38:03.233Z,21.19
2023-06-10T19:40:29.952Z,21.23
2023-06-10T19:42:58.528Z,21.14
2023-06-10T19:45:25.599Z,21.24
2023-06-10T19:47:52.614Z,21.23
2023-06-10T19:50:19.466Z,21.20
2023-06-10T19:52:49.013Z,21.21
2023-06-10T19:55:16.048Z,21.17
2023-06-10T19:57:42.777Z,21.16
2023-06-10T20:00:10.949Z,21.13
2023-06-10T20:02:41.180Z,21.14
2023-06-10T20:05:08.497Z,21.11
2023-06-10T20:07:35.688Z,21.10
2023-06-10T20:10:02.476Z,21.21
2023-06-10T20:12:29.337Z,21.17
2023-06-10T20:14:56.110Z,21.14
2023-06-10T20:17:22.950Z,21.14
2023-06-10T20:19:53.693Z,21.13
2023-06-10T20:22:21.263Z,21.19
2023-06-10T20:24:48.709Z,21.18
2023-06-10T20:27:15.784Z,21.18
2023-06-10T20:29:42.996Z,21.12
2023-06-10T20:32:09.939Z,21.09
2023-06-10T20:34:36.808Z,21.10
2023-06-10T20:37:04.873Z,21.12
2023-06-10T20:39:31.643Z,21.08
2023-06-10T20:41:58.472Z,21.14
2023-06-10T20:44:25.630Z,21.13
2023-06-10T20:46:52.397Z,21.09
2023-06-10T20:49:19.145Z,21.09
2023-06-10T20:51:46.062Z,20.99
2023-06-10T20:54:12.875Z,21.02
2023-06-10T20:56:39.662Z,20.99
2023-06-10T20:59:06.462Z,21.05
2023-06-10T21:01:33.267Z,20.98
2023-06-10T21:04:00.135Z,20.99
2023-06-10T21:06:27.991Z,20.96
2023-06-10T21:08:54.802Z,20.90
2023-06-10T21:11:22.578Z,20.82
2023-06-10T21:13:49.350Z,20.86
2023-06-10T21:16:16.838Z,20.93
2023-06-10T21:18:43.595Z,20.89
2023-06-10T21:21:10.555Z,20.92
2023-06-10T21:23:37.331Z,20.84
2023-06-10T21:26:06.486Z,20.80
2023-06-10T21:28:33.504Z,20.74
2023-06-10T21:31:00.409Z,20.77
2023-06-10T21:33:27.873Z,20.79
2023-06-10T21:35:54.924Z,20.74
2023-06-10T21:38:24.163Z,20.77
2023-06-10T21:40:55.167Z,20.88
2023-06-10T21:43:21.989Z,20.80
2023-06-10T21:45:48.724Z,20.83
2023-06-10T21:48:16.041Z,20.82
2023-06-10T21:50:42.782Z,20.81
2023-06-10T21:53:09.545Z,20.79
2023-06-10T21:55:36.320Z,20.78
2023-06-10T21:58:03.206Z,20.84
2023-06-10T22:00:30.055Z,20.88
2023-06-10T22:02:56.930Z,20.78
2023-06-10T22:05:24.283Z,20.81
2023-06-10T22:07:51.776Z,20.83
2023-06-10T22:10:18.574Z,20.86
2023-06-10T22:12:45.491Z,20.81
2023-06-10T22:15:12.742Z,20.90
2023-06-10T22:17:42.963Z,20.85
2023-06-10T22:20:10.361Z,20.86
2023-06-10T22:22:37.461Z,20.79
2023-06-10T22:25:04.649Z,20.73
2023-06-10T22:27:31.322Z,20.71
2023-06-10T22:29:58.355Z,20.71
2023-06-10T22:32:25.146Z,20.64
2023-06-10T22:34:51.854Z,20.59
2023-06-10T22:37:18.714Z,20.59
2023-06-10T22:39:45.479Z,20.57
2023-06-10T22:42:12.239Z,20.56
2023-06-10T22:44:39.231Z,20.45
2023-06-10T22:47:06.455Z,20.55
2023-06-10T22:49:33.134Z,20.37
2023-06-10T22:51:59.868Z,20.37
2023-06-10T22:54:27.854Z,20.39
2023-06-10T22:56:55.129Z,20.26
2023-06-10T22:59:22.008Z,20.35
2023-06-10T23:01:48.834Z,20.31
2023-06-10T23:04:15.953Z,20.34
2023-06-10T23:06:42.951Z,20.40
2023-06-10T23:09:11.070Z,20.36
2023-06-10T23:11:38.423Z,20.41
2023-06-10T23:14:05.194Z,20.35
2023-06-10T23:16:31.927Z,20.46
2023-06-10T23:18:59.830Z,20.44
2023-06-10T23:21:29.803Z,20.46
2023-06-10T23:26:24.813Z,20.49
2023-06-10T23:28:51.700Z,20.55
2023-06-10T23:31:18.584Z,20.56
2023-06-10T23:33:46.934Z,20.49
2023-06-10T23:36:15.180Z,20.49
2023-06-10T23:38:42.223Z,20.46
2023-06-10T23:41:08.958Z,20.41
2023-06-10T23:43:35.749Z,20.37
2023-06-10T23:46:02.522Z,20.45
2023-06-10T23:48:29.285Z,20.44
2023-06-10T23:50:56.339Z,20.43
2023-06-10T23:53:23.159Z,20.44
2023-06-10T23:55:49.879Z,20.38
2023-06-10T23:58:16.626Z,20.21
